HUN weather

Hualien Airport
Hualien City, Hualien County, Taiwan

Public forecast

Using degrees Celsius for public forecast. Weather courtesy of forecast.io.

Closest aviation weather report (METAR) to Hualien Airport

Closest report is Taichung Ching Chuang Kang Airport, 56.5 nm (104.7 km) WNW. Retrieved 2019/10/18 10:30 UTC (0 seconds ago):

RCMQ 181030Z 01017KT 9999 FEW012 22/17 Q1015 NOSIG RMK A2999

Closest aviation forecast (TAF) to Hualien Airport

Closest forecast is Taichung Ching Chuang Kang Airport, 56.5 nm (104.7 km) WNW. Retrieved 2019/10/18 06:21 UTC (4 hours ago):

TAF RCMQ 180500Z 1806/1906 36018KT 9999 FEW012 TX29/1905Z TN21/1821Z BECMG 1811/1814 02012KT BECMG 1815/1818 FEW012 SCT080 BECMG 1819/1822 FEW012 BKN080 BECMG 1900/1903 02020KT FEW012 SCT080